Time;durP1;ratioP1;P1;durP2;ratioP2;P2;SDS_P1;SDS_P2;PMS_P1;PMS_P2;Temp;Humidity;BMP_temperature;BMP_pressure;BME280_temperature;BME280_humidity;BME280_pressure;Samples;Min_cycle;Max_cycle;Signal;HPM_P1;HPM_P2
2022/01/02 00:01:12;;;;;;;15.73;10.27;;;7.60;99.90;;;;;;5025488;28;20454;-70
2022/01/02 00:03:40;;;;;;;16.83;9.43;;;7.60;99.90;;;;;;5027722;28;20767;-69
2022/01/02 00:06:07;;;;;;;16.00;10.30;;;7.60;99.90;;;;;;5025981;28;20424;-69
2022/01/02 00:08:41;;;;;;;16.17;9.57;;;7.60;99.90;;;;;;5025920;28;20941;-70
2022/01/02 00:11:11;;;;;;;17.40;9.37;;;7.50;99.90;;;;;;5026285;28;20447;-70
2022/01/02 00:13:45;;;;;;;16.00;9.23;;;7.50;99.90;;;;;;5027303;28;20451;-70
2022/01/02 00:16:14;;;;;;;21.33;10.20;;;7.40;99.90;;;;;;5025552;28;20439;-71
2022/01/02 00:18:48;;;;;;;13.00;9.23;;;7.40;99.90;;;;;;5025981;28;20899;-70
2022/01/02 00:21:16;;;;;;;13.47;8.97;;;7.40;99.90;;;;;;5024215;28;20570;-70
2022/01/02 00:24:00;;;;;;;18.90;10.30;;;7.40;99.90;;;;;;5025490;28;20519;-70
2022/01/02 00:26:36;;;;;;;22.67;9.37;;;7.30;99.90;;;;;;5025581;28;20429;-70
2022/01/02 00:29:06;;;;;;;15.20;8.73;;;7.40;99.90;;;;;;5026757;28;20903;-70
2022/01/02 00:31:32;;;;;;;18.27;9.60;;;7.60;99.90;;;;;;5030378;28;20463;-70
2022/01/02 00:34:00;;;;;;;15.23;9.10;;;7.70;99.90;;;;;;5026694;28;20486;-70
2022/01/02 00:36:26;;;;;;;16.90;9.60;;;7.70;99.90;;;;;;5025604;28;22151;-71
2022/01/02 00:38:52;;;;;;;15.37;9.40;;;7.60;99.90;;;;;;5025617;28;20997;-70
2022/01/02 00:41:24;;;;;;;18.07;9.47;;;7.60;99.90;;;;;;5025202;28;20756;-70
2022/01/02 00:44:10;;;;;;;26.63;14.20;;;7.50;99.90;;;;;;5021232;28;20452;-70
2022/01/02 00:46:44;;;;;;;17.53;9.17;;;7.50;99.90;;;;;;5019053;28;20429;-72
2022/01/02 00:49:12;;;;;;;17.23;8.70;;;7.50;99.90;;;;;;5009622;28;20435;-71
2022/01/02 00:51:47;;;;;;;22.20;12.33;;;7.50;99.90;;;;;;5025977;28;20475;-71
2022/01/02 00:54:22;;;;;;;18.70;10.57;;;7.60;99.90;;;;;;5031198;28;20427;-71
2022/01/02 00:56:51;;;;;;;21.83;10.83;;;7.70;99.90;;;;;;5030458;28;20783;-70
2022/01/02 00:59:37;;;;;;;21.90;9.90;;;7.70;99.90;;;;;;5031193;28;20506;-70
2022/01/02 01:02:05;;;;;;;19.37;10.40;;;7.70;99.90;;;;;;5024958;28;20431;-70
2022/01/02 01:04:32;;;;;;;21.13;10.73;;;7.80;99.90;;;;;;5029447;28;20514;-70
2022/01/02 01:07:04;;;;;;;19.60;10.33;;;7.80;99.90;;;;;;5029014;28;20914;-70
2022/01/02 01:09:31;;;;;;;14.33;9.50;;;7.80;99.90;;;;;;5030642;28;20416;-70
2022/01/02 01:12:01;;;;;;;16.93;10.00;;;7.80;99.90;;;;;;5030066;28;20615;-70
2022/01/02 01:14:28;;;;;;;13.13;8.73;;;7.70;99.90;;;;;;5027915;28;20445;-70
2022/01/02 01:16:54;;;;;;;12.70;8.83;;;7.70;99.90;;;;;;5029871;28;20768;-70
2022/01/02 01:19:21;;;;;;;14.30;8.27;;;7.60;99.90;;;;;;5030911;28;20405;-71
2022/01/02 01:21:47;;;;;;;13.30;7.97;;;7.50;99.90;;;;;;5027173;28;20475;-70
2022/01/02 01:24:13;;;;;;;14.27;8.57;;;7.70;99.90;;;;;;5029925;28;20444;-71
2022/01/02 01:26:40;;;;;;;15.27;8.80;;;7.40;99.90;;;;;;5029909;28;20261;-71
2022/01/02 01:29:06;;;;;;;18.90;9.70;;;7.40;99.90;;;;;;5029035;28;20260;-70
2022/01/02 01:31:31;;;;;;;15.47;9.57;;;7.30;99.90;;;;;;5029359;28;20991;-70
2022/01/02 01:33:57;;;;;;;13.67;8.77;;;7.30;99.90;;;;;;5028542;28;20293;-71
2022/01/02 01:36:22;;;;;;;20.33;9.50;;;7.30;99.90;;;;;;5028553;28;20293;-70
2022/01/02 01:38:48;;;;;;;14.13;8.50;;;7.30;99.90;;;;;;5029548;28;20173;-70
2022/01/02 01:41:33;;;;;;;17.60;9.57;;;7.40;99.90;;;;;;5029788;28;20185;-71
2022/01/02 01:44:22;;;;;;;37.97;16.70;;;7.40;99.90;;;;;;5020907;28;20202;-70
2022/01/02 01:46:51;;;;;;;19.30;10.13;;;7.40;99.90;;;;;;5028859;28;20450;-70
2022/01/02 01:49:19;;;;;;;15.80;9.43;;;7.50;99.90;;;;;;5028886;28;20507;-71
2022/01/02 01:51:46;;;;;;;22.67;11.73;;;7.50;99.90;;;;;;5022830;28;20455;-71
2022/01/02 01:54:12;;;;;;;24.60;12.77;;;7.50;99.90;;;;;;5024113;28;20548;-71
2022/01/02 01:56:38;;;;;;;29.60;13.67;;;7.50;99.90;;;;;;5027804;28;20528;-69
2022/01/02 01:59:04;;;;;;;24.87;12.77;;;7.50;99.90;;;;;;5029448;28;20194;-71
2022/01/02 02:01:31;;;;;;;17.80;10.10;;;7.40;99.90;;;;;;5029168;28;20424;-71
2022/01/02 02:03:57;;;;;;;20.63;10.70;;;7.30;99.90;;;;;;5027414;28;20869;-70
2022/01/02 02:06:22;;;;;;;15.00;9.30;;;7.30;99.90;;;;;;5028333;28;20696;-71
2022/01/02 02:08:50;;;;;;;24.93;10.70;;;7.30;99.90;;;;;;5029505;28;20464;-71
2022/01/02 02:11:16;;;;;;;15.57;9.07;;;7.30;99.90;;;;;;5028679;28;20636;-71
2022/01/02 02:13:44;;;;;;;18.07;8.70;;;7.30;99.90;;;;;;5029241;28;20490;-71
2022/01/02 02:16:09;;;;;;;19.43;10.80;;;7.30;99.90;;;;;;5028772;28;20459;-71
2022/01/02 02:18:35;;;;;;;20.80;10.30;;;7.30;99.90;;;;;;5028114;28;20490;-71
2022/01/02 02:21:01;;;;;;;17.20;9.87;;;7.50;99.90;;;;;;5026911;28;20698;-71
2022/01/02 02:23:26;;;;;;;16.37;9.90;;;7.60;99.90;;;;;;5028812;28;20205;-71
2022/01/02 02:25:52;;;;;;;16.87;10.60;;;7.70;99.90;;;;;;5029077;28;20208;-71
2022/01/02 02:28:18;;;;;;;18.53;9.90;;;7.70;99.90;;;;;;5028475;28;20173;-70
2022/01/02 02:30:46;;;;;;;17.13;10.07;;;7.80;99.90;;;;;;5029011;28;20259;-71
2022/01/02 02:33:12;;;;;;;18.80;11.03;;;7.90;99.90;;;;;;5027087;28;20240;-70
2022/01/02 02:35:40;;;;;;;15.90;9.50;;;7.90;99.90;;;;;;5028334;28;20513;-70
2022/01/02 02:38:08;;;;;;;15.50;9.90;;;8.00;99.90;;;;;;5028021;28;20801;-71
2022/01/02 02:40:35;;;;;;;14.37;9.50;;;8.00;99.90;;;;;;5027487;28;20428;-70
2022/01/02 02:43:21;;;;;;;15.00;9.77;;;8.10;99.90;;;;;;5028252;28;20458;-70
2022/01/02 02:51:27;;;;;;;16.60;10.10;;;8.20;99.90;;;;;;5027300;28;20471;-70
2022/01/02 02:53:53;;;;;;;16.33;9.23;;;8.20;99.90;;;;;;5028535;28;20847;-71
2022/01/02 02:56:41;;;;;;;14.77;8.60;;;8.10;99.90;;;;;;5020968;28;20426;-71
2022/01/02 02:59:06;;;;;;;15.90;9.47;;;8.10;99.90;;;;;;5022612;28;20416;-71
2022/01/02 03:01:32;;;;;;;12.30;9.13;;;8.00;99.90;;;;;;5026817;28;20451;-70
2022/01/02 03:03:57;;;;;;;17.23;8.80;;;8.00;99.90;;;;;;5028613;28;20210;-71
2022/01/02 03:06:23;;;;;;;13.77;9.03;;;8.00;99.90;;;;;;5026999;28;20327;-70
2022/01/02 03:08:50;;;;;;;16.43;9.10;;;7.90;99.90;;;;;;5028987;28;20585;-70
2022/01/02 03:11:20;;;;;;;13.73;7.97;;;7.90;99.90;;;;;;5027743;28;20632;-70
2022/01/02 03:13:50;;;;;;;14.53;9.03;;;7.90;99.90;;;;;;5028667;28;20820;-70
2022/01/02 03:16:16;;;;;;;13.87;9.20;;;7.90;99.90;;;;;;5026716;28;20496;-71
2022/01/02 03:18:42;;;;;;;13.47;8.40;;;7.80;99.90;;;;;;5027757;28;20579;-70
2022/01/02 03:21:09;;;;;;;11.37;7.90;;;7.80;99.90;;;;;;5026618;28;20491;-70
2022/01/02 03:23:35;;;;;;;14.47;8.50;;;7.80;99.90;;;;;;5028070;28;21122;-70
2022/01/02 03:26:01;;;;;;;14.80;8.50;;;7.80;99.90;;;;;;5027750;28;20425;-69
2022/01/02 03:28:26;;;;;;;14.97;9.30;;;7.80;99.90;;;;;;5026214;28;20298;-70
2022/01/02 03:30:52;;;;;;;13.93;8.53;;;7.80;99.90;;;;;;5026648;28;20306;-71
2022/01/02 03:33:18;;;;;;;14.23;8.97;;;7.80;99.90;;;;;;5026441;28;20221;-70
2022/01/02 03:35:43;;;;;;;13.53;8.13;;;7.80;99.90;;;;;;5027155;28;20620;-69
2022/01/02 03:38:09;;;;;;;14.93;9.10;;;7.80;99.90;;;;;;5027502;28;20186;-70
2022/01/02 03:40:35;;;;;;;14.23;8.60;;;7.80;99.90;;;;;;5026299;28;20553;-70
2022/01/02 03:43:01;;;;;;;11.13;7.90;;;7.80;99.90;;;;;;5025812;28;20699;-69
2022/01/02 03:45:27;;;;;;;12.70;8.30;;;7.80;99.90;;;;;;5027956;28;20222;-69
2022/01/02 03:47:52;;;;;;;14.60;9.40;;;7.80;99.90;;;;;;5027160;28;20524;-69
2022/01/02 03:50:18;;;;;;;12.73;8.20;;;7.80;99.90;;;;;;5027215;28;20301;-69
2022/01/02 03:52:44;;;;;;;12.20;8.60;;;7.80;99.90;;;;;;5026864;28;20234;-70
2022/01/02 03:55:10;;;;;;;13.60;8.53;;;7.80;99.90;;;;;;5024846;28;20277;-70
2022/01/02 03:57:36;;;;;;;12.57;8.53;;;7.80;99.90;;;;;;5026179;28;20244;-70
2022/01/02 04:00:07;;;;;;;13.97;8.83;;;7.80;99.90;;;;;;5028234;28;20420;-70
2022/01/02 04:02:34;;;;;;;12.67;8.23;;;7.90;99.90;;;;;;5026835;28;20237;-69
2022/01/02 04:05:00;;;;;;;16.00;8.57;;;7.80;99.90;;;;;;5025872;28;21016;-70
2022/01/02 04:07:26;;;;;;;13.83;8.20;;;8.20;99.90;;;;;;5027142;28;20626;-69
2022/01/02 04:09:51;;;;;;;10.57;7.93;;;7.90;99.90;;;;;;5027346;28;20180;-70
2022/01/02 04:12:17;;;;;;;13.03;8.07;;;8.10;99.90;;;;;;5027330;28;20202;-69
2022/01/02 04:14:44;;;;;;;24.37;8.90;;;8.00;99.90;;;;;;5025875;28;20177;-70
2022/01/02 04:17:09;;;;;;;11.60;8.33;;;8.10;99.90;;;;;;5027302;28;20186;-69
2022/01/02 04:19:35;;;;;;;13.80;7.77;;;8.10;99.90;;;;;;5027585;28;20425;-69
2022/01/02 04:22:00;;;;;;;12.10;7.00;;;8.10;99.90;;;;;;5025736;28;20243;-69
2022/01/02 04:24:26;;;;;;;8.23;6.03;;;8.10;99.90;;;;;;5027075;28;20205;-69
2022/01/02 04:26:51;;;;;;;11.50;6.87;;;8.10;99.90;;;;;;5026622;28;20281;-70
2022/01/02 04:29:17;;;;;;;8.40;6.70;;;8.20;99.90;;;;;;5027379;28;20711;-70
2022/01/02 04:31:42;;;;;;;12.50;6.40;;;8.10;99.90;;;;;;5026070;28;20238;-70
2022/01/02 04:34:08;;;;;;;10.23;6.43;;;8.20;99.90;;;;;;5027316;28;20442;-69
2022/01/02 04:36:33;;;;;;;10.53;6.67;;;8.30;99.90;;;;;;5024621;28;20246;-70
2022/01/02 04:38:59;;;;;;;11.90;6.70;;;8.30;99.90;;;;;;5025066;28;20178;-70
2022/01/02 04:41:24;;;;;;;8.90;6.37;;;8.20;99.90;;;;;;5027297;28;20198;-69
2022/01/02 04:43:50;;;;;;;10.07;6.60;;;8.10;99.90;;;;;;5025175;28;20232;-70
2022/01/02 04:46:15;;;;;;;9.90;6.80;;;8.10;99.90;;;;;;5025545;28;20678;-70
2022/01/02 04:48:41;;;;;;;10.00;6.63;;;8.10;99.90;;;;;;5025615;28;20201;-70
2022/01/02 04:51:06;;;;;;;7.80;6.03;;;8.00;99.90;;;;;;5024057;28;20189;-70
2022/01/02 04:53:33;;;;;;;7.20;5.77;;;7.90;99.90;;;;;;5026314;28;20216;-70
2022/01/02 04:55:58;;;;;;;8.73;5.67;;;7.80;99.90;;;;;;5025564;28;20196;-69
2022/01/02 04:58:24;;;;;;;8.83;6.07;;;7.70;99.90;;;;;;5026917;28;20931;-69
2022/01/02 05:00:49;;;;;;;7.80;5.53;;;7.60;99.90;;;;;;5025369;28;20475;-70
2022/01/02 05:03:15;;;;;;;6.93;5.90;;;7.50;99.90;;;;;;5023655;28;20679;-69
2022/01/02 05:05:40;;;;;;;8.20;5.90;;;7.50;99.90;;;;;;5026298;28;20185;-69
2022/01/02 05:08:06;;;;;;;7.53;5.47;;;7.50;99.90;;;;;;5025906;28;20184;-71
2022/01/02 05:10:31;;;;;;;7.40;5.67;;;7.40;99.90;;;;;;5027369;28;20324;-70
2022/01/02 05:12:57;;;;;;;8.43;5.70;;;7.20;99.90;;;;;;5025356;28;20221;-69
2022/01/02 05:15:22;;;;;;;9.33;5.77;;;7.20;99.90;;;;;;5025111;28;20188;-69
2022/01/02 05:17:48;;;;;;;7.20;5.43;;;7.20;99.90;;;;;;5024995;28;20170;-70
2022/01/02 05:20:14;;;;;;;7.07;5.20;;;7.10;99.90;;;;;;5026434;28;20174;-70
2022/01/02 05:22:40;;;;;;;7.50;5.70;;;7.10;99.90;;;;;;5026239;28;20267;-69
2022/01/02 05:25:06;;;;;;;9.67;5.83;;;7.50;99.90;;;;;;5024493;28;20177;-69
2022/01/02 05:27:31;;;;;;;9.00;5.60;;;7.10;99.90;;;;;;5026627;28;20556;-69
2022/01/02 05:29:57;;;;;;;9.30;6.10;;;7.10;99.90;;;;;;5026640;28;20441;-69
2022/01/02 05:32:22;;;;;;;10.10;6.00;;;7.10;99.90;;;;;;5026651;28;20210;-69
2022/01/02 05:34:48;;;;;;;8.40;5.87;;;7.10;99.90;;;;;;5026339;28;20170;-69
2022/01/02 05:37:14;;;;;;;8.93;5.70;;;7.10;99.90;;;;;;5025755;28;20200;-69
2022/01/02 05:39:39;;;;;;;7.60;5.83;;;7.10;99.90;;;;;;5029688;28;20210;-69
2022/01/02 05:42:05;;;;;;;8.80;6.50;;;7.00;99.90;;;;;;5029637;28;20178;-70
2022/01/02 05:44:31;;;;;;;8.23;6.10;;;7.00;99.90;;;;;;5028504;28;20291;-69
2022/01/02 05:46:57;;;;;;;9.50;6.43;;;7.00;99.90;;;;;;5029830;28;20217;-70
2022/01/02 05:49:22;;;;;;;7.60;5.97;;;7.00;99.90;;;;;;5028275;28;20392;-69
2022/01/02 05:51:48;;;;;;;8.60;5.90;;;7.00;99.90;;;;;;5027164;28;21045;-70
2022/01/02 05:54:14;;;;;;;8.60;6.47;;;7.10;99.90;;;;;;5027738;28;20555;-70
2022/01/02 05:56:39;;;;;;;11.97;6.77;;;7.10;99.90;;;;;;5028062;28;20170;-71
2022/01/02 05:59:05;;;;;;;9.73;7.33;;;7.10;99.90;;;;;;5029320;28;20405;-70
2022/01/02 06:01:31;;;;;;;18.27;8.17;;;7.20;99.90;;;;;;5027447;28;20516;-69
2022/01/02 06:03:57;;;;;;;19.00;10.30;;;7.20;99.90;;;;;;5029837;28;20204;-69
2022/01/02 06:06:22;;;;;;;20.07;9.90;;;7.20;99.90;;;;;;5026895;28;20252;-69
2022/01/02 06:08:48;;;;;;;16.27;8.50;;;7.20;99.90;;;;;;5029039;28;20170;-69
2022/01/02 06:11:13;;;;;;;16.47;9.20;;;7.80;99.90;;;;;;5029986;28;20280;-70
2022/01/02 06:13:40;;;;;;;16.20;9.00;;;7.20;99.90;;;;;;5028851;28;20638;-69
2022/01/02 06:16:06;;;;;;;12.10;8.10;;;7.20;99.90;;;;;;5029780;28;20166;-70
2022/01/02 06:18:32;;;;;;;16.07;8.60;;;7.10;99.90;;;;;;5029465;28;20417;-69
2022/01/02 06:20:58;;;;;;;12.17;7.27;;;8.50;99.90;;;;;;5027605;28;20757;-69
2022/01/02 06:23:23;;;;;;;11.80;7.23;;;7.20;99.90;;;;;;5027311;28;20209;-69
2022/01/02 06:25:49;;;;;;;12.67;7.80;;;7.20;99.90;;;;;;5029048;28;20188;-69
2022/01/02 06:28:14;;;;;;;11.20;7.13;;;7.20;99.90;;;;;;5027215;28;20181;-69
2022/01/02 06:30:40;;;;;;;12.03;7.40;;;7.20;99.90;;;;;;5029129;28;20198;-69
2022/01/02 16:16:30;;;;;;;11.20;4.20;;;10.70;99.90;;;;;;5063816;28;20566;-68
2022/01/02 16:18:56;;;;;;;13.03;5.83;;;10.80;99.90;;;;;;5064365;28;20438;-69
2022/01/02 16:21:21;;;;;;;11.43;6.83;;;10.60;99.90;;;;;;5062068;28;20730;-69
2022/01/02 16:23:52;;;;;;;7.67;6.90;;;11.00;99.90;;;;;;5063672;28;20609;-70
2022/01/02 16:26:21;;;;;;;11.53;6.23;;;11.20;99.90;;;;;;5060116;28;20171;-70
2022/01/02 16:28:47;;;;;;;7.20;5.23;;;11.40;99.90;;;;;;5045211;28;20951;-70
2022/01/02 16:31:16;;;;;;;10.53;4.70;;;11.60;99.90;;;;;;5050136;28;20416;-69
2022/01/02 16:33:42;;;;;;;8.23;3.93;;;11.90;99.90;;;;;;5061933;28;20771;-69
2022/01/02 16:36:08;;;;;;;7.20;4.10;;;11.90;99.90;;;;;;5058655;28;20565;-69
2022/01/02 16:38:34;;;;;;;6.43;4.23;;;12.00;99.90;;;;;;5064234;28;20506;-70
2022/01/02 16:41:00;;;;;;;8.23;4.33;;;12.10;99.90;;;;;;5059955;28;20193;-70
2022/01/02 16:43:26;;;;;;;10.73;4.30;;;12.20;99.90;;;;;;5057127;28;20287;-70
2022/01/02 16:45:51;;;;;;;6.20;4.00;;;12.30;99.90;;;;;;5070521;28;20169;-70
2022/01/02 16:48:17;;;;;;;8.30;4.30;;;12.30;99.90;;;;;;5064087;28;20196;-70
2022/01/02 16:50:44;;;;;;;8.37;4.33;;;12.30;99.90;;;;;;5056288;28;20171;-70
2022/01/02 16:53:10;;;;;;;9.77;4.00;;;12.40;99.90;;;;;;5043961;28;20270;-71
2022/01/02 16:55:36;;;;;;;4.97;3.23;;;12.40;99.90;;;;;;5046650;28;20511;-70
2022/01/02 16:58:03;;;;;;;6.53;4.10;;;12.40;99.90;;;;;;5061283;28;20814;-69
2022/01/02 17:00:29;;;;;;;5.27;4.20;;;12.40;99.90;;;;;;5063862;28;20249;-70
2022/01/02 17:02:58;;;;;;;8.60;3.50;;;12.30;99.90;;;;;;5059518;28;21279;-69
2022/01/02 17:05:24;;;;;;;5.87;3.30;;;12.30;99.90;;;;;;5059268;28;20449;-70
2022/01/02 17:07:50;;;;;;;7.10;3.53;;;12.20;99.90;;;;;;5061052;28;20431;-69
2022/01/02 17:10:15;;;;;;;7.40;4.40;;;12.20;99.90;;;;;;5051898;28;20446;-69
2022/01/02 17:12:41;;;;;;;6.80;3.47;;;12.10;99.90;;;;;;5055341;28;20196;-70
2022/01/02 17:15:08;;;;;;;8.27;3.70;;;12.10;99.90;;;;;;5064078;28;20205;-69
2022/01/02 17:17:37;;;;;;;5.50;3.60;;;12.10;99.90;;;;;;5063438;28;20176;-70
2022/01/02 17:20:08;;;;;;;6.00;3.23;;;12.10;99.90;;;;;;5062154;28;20426;-70
2022/01/02 17:22:34;;;;;;;6.87;3.27;;;12.10;99.90;;;;;;5044022;28;20422;-69
2022/01/02 17:25:00;;;;;;;3.77;3.37;;;12.10;99.90;;;;;;5057901;28;20500;-69
2022/01/02 17:27:30;;;;;;;6.23;4.07;;;12.10;99.90;;;;;;5031817;28;20883;-70
2022/01/02 17:29:56;;;;;;;5.80;3.73;;;12.10;99.90;;;;;;5028802;28;20188;-71
2022/01/02 17:32:22;;;;;;;7.40;4.20;;;12.00;99.90;;;;;;5034885;28;20415;-69
2022/01/02 17:34:49;;;;;;;5.23;3.70;;;12.00;99.90;;;;;;5048466;28;20888;-70
2022/01/02 17:37:15;;;;;;;5.63;3.23;;;12.00;99.90;;;;;;5037772;28;20166;-71
2022/01/02 17:39:41;;;;;;;4.93;3.57;;;12.00;99.90;;;;;;5039800;28;20452;-70
2022/01/02 17:42:07;;;;;;;3.80;3.40;;;12.00;99.90;;;;;;5029380;28;20930;-70
2022/01/02 17:44:33;;;;;;;5.50;3.50;;;12.10;99.90;;;;;;5052292;28;20733;-70
2022/01/02 17:46:59;;;;;;;7.83;3.70;;;12.10;99.90;;;;;;5069692;28;20682;-70
2022/01/02 17:49:25;;;;;;;7.60;3.70;;;12.20;99.90;;;;;;5047113;28;20166;-70
2022/01/02 17:51:51;;;;;;;6.20;3.50;;;12.30;99.90;;;;;;5028962;28;20432;-70
2022/01/02 17:54:17;;;;;;;8.23;3.30;;;12.30;99.90;;;;;;5031283;28;20911;-70
2022/01/02 17:56:43;;;;;;;6.20;3.20;;;12.30;99.90;;;;;;5048128;28;20251;-70
2022/01/02 17:59:09;;;;;;;7.03;3.27;;;12.30;99.90;;;;;;5050293;28;20400;-70
2022/01/02 18:01:35;;;;;;;9.83;4.27;;;12.30;99.90;;;;;;5039071;28;20173;-70
2022/01/02 18:04:02;;;;;;;4.57;3.40;;;12.30;99.90;;;;;;5030425;28;20281;-71
2022/01/02 18:06:28;;;;;;;7.10;3.80;;;12.30;99.90;;;;;;5041198;28;20441;-71
2022/01/02 18:08:59;;;;;;;5.90;3.40;;;12.30;99.90;;;;;;5049589;28;20423;-70
2022/01/02 18:11:28;;;;;;;7.20;3.40;;;12.30;99.90;;;;;;5048022;28;20628;-70
2022/01/02 18:13:53;;;;;;;4.63;3.60;;;12.20;99.90;;;;;;5049330;28;20435;-71
2022/01/02 18:16:19;;;;;;;6.00;3.70;;;12.20;99.90;;;;;;5050647;28;20538;-70
2022/01/02 18:18:44;;;;;;;7.10;3.57;;;12.30;99.90;;;;;;5047972;28;20165;-70
2022/01/02 18:21:13;;;;;;;6.03;3.90;;;12.30;99.90;;;;;;5037697;28;20169;-70
2022/01/02 18:23:43;;;;;;;5.67;3.70;;;12.30;99.90;;;;;;5049500;28;20208;-70
2022/01/02 18:26:11;;;;;;;4.60;3.73;;;12.20;99.90;;;;;;5036560;28;20428;-71
2022/01/02 18:28:38;;;;;;;6.47;3.90;;;12.20;99.90;;;;;;5029723;28;20540;-70
2022/01/02 18:31:03;;;;;;;6.17;3.93;;;12.10;99.90;;;;;;5030156;28;20807;-70
2022/01/02 18:33:29;;;;;;;5.03;3.50;;;12.10;99.90;;;;;;5029361;28;20437;-70
2022/01/02 18:35:54;;;;;;;3.87;3.27;;;12.00;99.90;;;;;;5037304;28;20251;-70
2022/01/02 18:38:20;;;;;;;12.80;5.10;;;12.00;99.90;;;;;;5045730;28;20177;-70
2022/01/02 18:40:48;;;;;;;7.93;3.80;;;12.00;99.90;;;;;;5046556;28;20209;-70
2022/01/02 18:43:14;;;;;;;6.73;3.33;;;12.00;99.90;;;;;;5048544;28;20192;-70
2022/01/02 18:45:39;;;;;;;5.63;4.10;;;12.00;99.90;;;;;;5052579;28;20450;-70
2022/01/02 18:48:05;;;;;;;6.20;3.23;;;12.10;99.90;;;;;;5048770;28;20177;-70
2022/01/02 18:50:31;;;;;;;6.23;3.70;;;12.10;99.90;;;;;;5044892;28;20196;-70
2022/01/02 18:52:56;;;;;;;6.73;3.70;;;12.20;99.90;;;;;;5048048;28;20208;-70
2022/01/02 18:55:22;;;;;;;5.80;4.30;;;12.20;99.90;;;;;;5028202;28;20573;-70
2022/01/02 18:57:47;;;;;;;6.80;3.37;;;12.20;99.90;;;;;;5027301;28;20177;-70
2022/01/02 19:00:13;;;;;;;5.67;3.60;;;12.20;99.90;;;;;;5036230;28;20210;-70
2022/01/02 19:02:39;;;;;;;6.27;3.60;;;12.30;99.90;;;;;;5040356;28;20184;-70
2022/01/02 19:05:05;;;;;;;6.40;4.00;;;12.30;99.90;;;;;;5030607;28;20559;-71
2022/01/02 19:07:30;;;;;;;7.63;3.60;;;12.30;99.90;;;;;;5048158;28;20251;-70
2022/01/02 19:09:56;;;;;;;4.90;3.40;;;12.40;99.90;;;;;;5044279;28;20432;-70
2022/01/02 19:12:22;;;;;;;7.03;3.80;;;12.30;99.90;;;;;;5029550;28;20347;-70
2022/01/02 19:14:47;;;;;;;5.80;3.53;;;12.30;99.90;;;;;;5037088;28;21068;-70
2022/01/02 19:17:13;;;;;;;7.40;4.00;;;12.30;99.90;;;;;;5042179;28;20170;-71
2022/01/02 19:19:39;;;;;;;5.10;3.43;;;12.30;99.90;;;;;;5045587;28;20177;-70
2022/01/02 19:22:04;;;;;;;11.10;3.60;;;12.20;99.90;;;;;;5047383;28;20169;-70
2022/01/02 19:24:31;;;;;;;5.97;3.43;;;12.20;99.90;;;;;;5032307;28;20205;-69
2022/01/02 19:26:56;;;;;;;8.43;4.13;;;12.20;99.90;;;;;;5037175;28;20199;-71
2022/01/02 19:29:22;;;;;;;5.20;3.43;;;12.20;99.90;;;;;;5046869;28;20437;-70
2022/01/02 19:31:48;;;;;;;10.97;3.93;;;12.20;99.90;;;;;;5046421;28;20650;-70
2022/01/02 19:34:14;;;;;;;9.13;3.70;;;12.30;99.90;;;;;;5028392;28;20707;-71
2022/01/02 19:36:40;;;;;;;6.27;3.53;;;12.30;99.90;;;;;;5028225;28;20412;-70
2022/01/02 19:39:07;;;;;;;7.13;3.70;;;12.30;99.90;;;;;;5029076;28;20548;-70
2022/01/02 19:41:35;;;;;;;8.97;4.33;;;12.40;99.90;;;;;;5028017;28;20174;-71
2022/01/02 19:44:03;;;;;;;6.90;4.30;;;12.30;99.90;;;;;;5049881;28;20963;-71
2022/01/02 19:46:31;;;;;;;4.40;3.47;;;12.30;99.90;;;;;;5048967;28;20521;-71
2022/01/02 19:49:00;;;;;;;5.97;3.50;;;12.30;99.90;;;;;;5046034;28;20419;-71
2022/01/02 19:51:26;;;;;;;5.43;3.10;;;12.30;99.90;;;;;;5044685;28;20420;-71
2022/01/02 19:53:52;;;;;;;7.93;3.87;;;12.30;99.90;;;;;;5036478;28;20493;-71
2022/01/02 19:56:18;;;;;;;4.77;2.90;;;12.30;99.90;;;;;;5044988;28;21013;-70
2022/01/02 19:58:44;;;;;;;6.03;3.20;;;12.20;99.90;;;;;;5034667;28;20675;-71
2022/01/02 20:01:10;;;;;;;5.50;3.90;;;12.30;99.90;;;;;;5027694;28;20435;-70
2022/01/02 20:03:36;;;;;;;5.50;3.10;;;12.30;99.90;;;;;;5043445;28;20439;-71
2022/01/02 20:06:02;;;;;;;4.43;3.20;;;12.30;99.90;;;;;;5046571;28;20560;-70
2022/01/02 20:08:27;;;;;;;5.10;2.97;;;12.40;99.90;;;;;;5028304;28;20328;-70
2022/01/02 20:10:53;;;;;;;5.50;3.27;;;12.50;99.90;;;;;;5027591;28;20241;-70
2022/01/02 20:13:19;;;;;;;4.90;3.10;;;12.70;99.90;;;;;;5045043;28;20736;-70
2022/01/02 20:15:45;;;;;;;6.43;3.13;;;12.70;99.90;;;;;;5051050;28;20276;-70
2022/01/02 20:18:11;;;;;;;5.83;2.60;;;12.70;99.90;;;;;;5050017;28;20589;-70
2022/01/02 20:20:38;;;;;;;4.10;2.60;;;12.80;99.90;;;;;;5046396;28;20351;-70
2022/01/02 20:23:04;;;;;;;5.50;2.70;;;12.90;99.90;;;;;;5042603;28;20185;-70
2022/01/02 20:25:32;;;;;;;4.77;2.90;;;12.70;99.90;;;;;;5032811;28;20558;-71
2022/01/02 20:28:00;;;;;;;6.50;2.40;;;13.00;99.90;;;;;;5039458;28;20177;-71
2022/01/02 20:30:26;;;;;;;6.03;2.57;;;13.10;99.90;;;;;;5046841;28;20443;-71
2022/01/02 20:32:52;;;;;;;4.07;2.53;;;13.20;99.90;;;;;;5047040;28;20450;-71
2022/01/02 20:35:18;;;;;;;7.03;2.50;;;13.20;99.90;;;;;;5042983;28;20655;-71
2022/01/02 20:37:44;;;;;;;5.33;2.50;;;14.30;99.90;;;;;;5035933;28;20435;-71
2022/01/02 20:40:14;;;;;;;3.77;2.20;;;13.20;99.90;;;;;;5039839;28;20186;-71
2022/01/02 20:42:39;;;;;;;8.03;2.60;;;13.20;99.90;;;;;;5043489;28;20181;-71
2022/01/02 20:45:06;;;;;;;4.37;2.10;;;13.20;99.90;;;;;;5058708;28;20475;-70
2022/01/02 20:47:32;;;;;;;4.93;2.67;;;13.20;99.90;;;;;;5034506;28;20224;-70
2022/01/02 20:49:57;;;;;;;5.13;2.67;;;13.30;99.90;;;;;;5044892;28;20416;-71
2022/01/02 20:52:23;;;;;;;5.80;2.00;;;13.40;99.90;;;;;;5037369;28;20177;-69
2022/01/02 20:54:52;;;;;;;4.10;2.40;;;13.40;99.90;;;;;;5026724;28;20197;-71
2022/01/02 20:57:19;;;;;;;6.03;2.70;;;13.40;99.90;;;;;;5027068;28;20680;-70
2022/01/02 20:59:45;;;;;;;8.17;2.53;;;13.40;99.90;;;;;;5026937;28;20455;-71
2022/01/02 21:02:10;;;;;;;2.47;2.20;;;13.40;99.90;;;;;;5029511;28;20475;-71
2022/01/02 21:04:37;;;;;;;14.30;3.17;;;13.40;99.90;;;;;;5034677;28;20863;-71
2022/01/02 21:07:03;;;;;;;4.17;2.27;;;13.40;99.90;;;;;;5031400;28;20178;-71
2022/01/02 21:09:29;;;;;;;5.00;2.50;;;13.30;99.90;;;;;;5040322;28;20424;-69
2022/01/02 21:11:55;;;;;;;5.57;2.50;;;13.40;99.90;;;;;;5030765;28;20743;-71
2022/01/02 21:14:21;;;;;;;5.53;2.50;;;13.40;99.90;;;;;;5055226;28;20269;-70
2022/01/02 21:16:47;;;;;;;3.43;2.07;;;13.40;99.90;;;;;;5048607;28;20560;-70
2022/01/02 21:19:12;;;;;;;3.53;2.20;;;13.50;99.90;;;;;;5050848;28;20169;-71
2022/01/02 21:21:38;;;;;;;4.50;2.07;;;13.50;99.90;;;;;;5043984;28;20577;-70
2022/01/02 21:24:04;;;;;;;6.67;2.40;;;13.50;99.90;;;;;;5050484;28;20216;-71
2022/01/02 21:26:30;;;;;;;8.27;2.20;;;13.50;99.90;;;;;;5044764;28;20178;-71
2022/01/02 21:28:56;;;;;;;3.60;2.20;;;13.50;99.90;;;;;;5030437;28;20802;-71
2022/01/02 21:31:21;;;;;;;5.47;2.00;;;13.50;99.90;;;;;;5049289;28;20219;-71
2022/01/02 21:33:47;;;;;;;4.13;1.93;;;13.50;99.90;;;;;;5034610;28;20262;-71
2022/01/02 21:36:14;;;;;;;6.90;1.80;;;13.60;99.90;;;;;;5030464;28;20290;-71
2022/01/02 21:38:41;;;;;;;5.57;2.00;;;13.60;99.90;;;;;;5040241;28;20548;-71
2022/01/02 21:41:07;;;;;;;7.37;2.70;;;13.60;99.90;;;;;;5049705;28;20404;-71
2022/01/02 21:43:33;;;;;;;6.20;2.20;;;13.60;99.90;;;;;;5049198;28;20434;-71
2022/01/02 21:45:59;;;;;;;4.70;1.90;;;13.60;99.90;;;;;;5060318;28;20507;-71
2022/01/02 21:48:26;;;;;;;3.50;2.20;;;13.70;99.90;;;;;;5028846;28;20713;-71
2022/01/02 21:50:52;;;;;;;5.67;1.90;;;13.70;99.90;;;;;;5029444;28;20607;-71
2022/01/02 21:53:18;;;;;;;6.90;2.00;;;13.60;99.90;;;;;;5029574;28;20793;-70
2022/01/02 21:55:46;;;;;;;5.23;2.10;;;13.70;99.90;;;;;;5043568;28;21020;-71
2022/01/02 21:58:11;;;;;;;5.60;2.20;;;13.60;99.90;;;;;;5048780;28;20260;-70
2022/01/02 22:00:37;;;;;;;3.53;2.13;;;13.60;99.90;;;;;;5044474;28;20871;-70
2022/01/02 22:03:10;;;;;;;4.70;2.90;;;13.70;99.90;;;;;;5029660;28;20274;-71
2022/01/02 22:05:42;;;;;;;11.90;5.37;;;13.60;99.90;;;;;;5027359;28;20170;-70
2022/01/02 22:08:08;;;;;;;5.50;2.40;;;13.60;99.90;;;;;;5046495;28;20527;-71
2022/01/02 22:10:35;;;;;;;5.00;2.13;;;13.70;99.90;;;;;;5030270;28;20428;-70
2022/01/02 22:13:00;;;;;;;4.90;2.37;;;14.00;99.90;;;;;;5041029;28;20446;-70
2022/01/02 22:15:27;;;;;;;3.67;1.70;;;13.70;99.90;;;;;;5053289;28;20987;-70
2022/01/02 22:17:53;;;;;;;5.87;2.73;;;13.70;99.90;;;;;;5048357;28;20173;-70
2022/01/02 22:20:18;;;;;;;4.63;1.80;;;13.80;99.90;;;;;;5048570;28;20419;-70
2022/01/02 22:22:45;;;;;;;5.03;2.00;;;13.90;99.90;;;;;;5047941;28;20197;-71
2022/01/02 22:25:19;;;;;;;3.57;1.90;;;13.80;99.90;;;;;;5035667;28;20294;-71
2022/01/02 22:27:45;;;;;;;3.53;1.97;;;13.90;99.90;;;;;;5040992;28;20424;-71
2022/01/02 22:30:12;;;;;;;8.63;2.30;;;13.90;99.90;;;;;;5029379;28;20412;-71
2022/01/02 22:32:40;;;;;;;8.90;2.03;;;13.90;99.90;;;;;;5029332;28;20728;-71